Terminal Aerodrome Forecast
Issued by NWS Upton, NY

Home | Current Version | Previous Version | Text Only | Print | Product List | Glossary On
Versions: 1 2 3 4 5 6 7 8 9 10 11 12 13 14 15 16 17 18 19 20 21 22 23 24 25
000
FTUS41 KOKX 210200 AAA
TAFLGA
TAF AMD
KLGA 210231Z 2103/2124 28015G23KT P6SM SKC
     FM211400 30020G30KT P6SM FEW050
     FM212300 31012KT P6SM SKC=

USA.gov is the U.S. government's official web portal to all federal, state and local government web resources and services.